Time;durP1;ratioP1;P1;durP2;ratioP2;P2;SDS_P1;SDS_P2;PMS_P1;PMS_P2;Temp;Humidity;BMP_temperature;BMP_pressure;BME280_temperature;BME280_humidity;BME280_pressure;Samples;Min_cycle;Max_cycle;Signal;HPM_P1;HPM_P2
2024/04/09 00:00:03;;;;;;;12.55;3.50;;;;;;;;;;5448688;26;20007;-60
2024/04/09 00:02:29;;;;;;;13.52;4.68;;;;;;;;;;5443058;26;20003;-60
2024/04/09 00:04:56;;;;;;;13.20;3.42;;;;;;;;;;5429853;26;20503;-59
2024/04/09 00:07:22;;;;;;;15.63;4.15;;;;;;;;;;5450661;26;20083;-60
2024/04/09 00:09:52;;;;;;;9.48;2.85;;;;;;;;;;5450093;26;20445;-60
2024/04/09 00:12:21;;;;;;;9.63;3.22;;;;;;;;;;5435669;26;20014;-60
2024/04/09 00:14:49;;;;;;;13.85;3.92;;;;;;;;;;5450414;26;19999;-59
2024/04/09 00:17:19;;;;;;;7.70;3.22;;;;;;;;;;5449755;26;20023;-60
2024/04/09 00:19:48;;;;;;;8.77;3.58;;;;;;;;;;5447840;26;20480;-59
2024/04/09 00:22:14;;;;;;;7.38;3.50;;;;;;;;;;5444065;26;19991;-56
2024/04/09 00:24:40;;;;;;;10.73;3.38;;;;;;;;;;5442745;26;20079;-60
2024/04/09 00:27:06;;;;;;;18.58;4.40;;;;;;;;;;5444554;26;20039;-60
2024/04/09 00:29:34;;;;;;;12.20;3.85;;;;;;;;;;5440046;26;20003;-59
2024/04/09 00:32:00;;;;;;;7.32;3.47;;;;;;;;;;5438958;26;19995;-60
2024/04/09 00:34:26;;;;;;;8.38;3.10;;;;;;;;;;5443053;26;20006;-60
2024/04/09 00:36:53;;;;;;;12.23;3.45;;;;;;;;;;5448198;26;20002;-59
2024/04/09 00:39:24;;;;;;;6.60;3.58;;;;;;;;;;5442671;26;19999;-59
2024/04/09 00:41:50;;;;;;;12.77;3.58;;;;;;;;;;5447299;26;20000;-60
2024/04/09 00:44:16;;;;;;;9.10;3.70;;;;;;;;;;5446073;26;20342;-59
2024/04/09 00:46:43;;;;;;;11.73;3.42;;;;;;;;;;5449012;26;19994;-60
2024/04/09 00:49:10;;;;;;;8.18;3.92;;;;;;;;;;5449784;26;20072;-60
2024/04/09 00:51:39;;;;;;;7.70;3.58;;;;;;;;;;5449507;26;20045;-60
2024/04/09 00:54:05;;;;;;;14.50;4.30;;;;;;;;;;5444087;26;20014;-59
2024/04/09 00:56:31;;;;;;;10.80;3.75;;;;;;;;;;5437586;26;19995;-60
2024/04/09 00:58:56;;;;;;;11.10;3.90;;;;;;;;;;5449175;26;19999;-60
2024/04/09 01:01:26;;;;;;;8.13;3.85;;;;;;;;;;5437228;26;20012;-58
2024/04/09 01:03:52;;;;;;;14.27;3.55;;;;;;;;;;5429240;26;20000;-58
2024/04/09 01:06:18;;;;;;;7.70;3.28;;;;;;;;;;5444152;26;20013;-58
2024/04/09 01:08:44;;;;;;;10.18;3.95;;;;;;;;;;5450458;26;20006;-58
2024/04/09 01:11:10;;;;;;;17.98;3.70;;;;;;;;;;5448299;26;19999;-59
2024/04/09 01:13:38;;;;;;;15.35;3.78;;;;;;;;;;5444012;26;20092;-58
2024/04/09 01:16:04;;;;;;;8.15;3.55;;;;;;;;;;5443977;26;20821;-58
2024/04/09 01:18:30;;;;;;;7.28;3.33;;;;;;;;;;5449885;26;19999;-58
2024/04/09 01:20:56;;;;;;;8.63;3.58;;;;;;;;;;5443145;26;20002;-57
2024/04/09 01:23:22;;;;;;;13.13;3.72;;;;;;;;;;5447968;26;20070;-58
2024/04/09 01:25:48;;;;;;;12.23;3.58;;;;;;;;;;5449389;26;20006;-58
2024/04/09 01:28:14;;;;;;;7.93;3.55;;;;;;;;;;5447572;26;20003;-58
2024/04/09 01:30:41;;;;;;;10.07;4.55;;;;;;;;;;5449487;26;20010;-58
2024/04/09 01:33:07;;;;;;;9.05;4.25;;;;;;;;;;5413871;26;20023;-59
2024/04/09 01:35:33;;;;;;;6.80;3.70;;;;;;;;;;5445632;26;20706;-58
2024/04/09 01:37:59;;;;;;;13.07;4.35;;;;;;;;;;5436479;26;20070;-58
2024/04/09 01:40:25;;;;;;;10.52;3.58;;;;;;;;;;5442245;26;20000;-58
2024/04/09 01:42:51;;;;;;;11.07;4.20;;;;;;;;;;5436478;26;20010;-58
2024/04/09 01:45:17;;;;;;;9.23;3.85;;;;;;;;;;5448689;26;20014;-58
2024/04/09 01:47:43;;;;;;;15.35;4.63;;;;;;;;;;5450203;26;19995;-58
2024/04/09 01:50:10;;;;;;;13.60;3.95;;;;;;;;;;5453220;26;19998;-59
2024/04/09 01:52:36;;;;;;;9.18;3.72;;;;;;;;;;5417650;26;20324;-58
2024/04/09 01:55:05;;;;;;;10.02;4.03;;;;;;;;;;5452118;26;20071;-57
2024/04/09 01:57:34;;;;;;;10.68;3.75;;;;;;;;;;5420261;26;20002;-58
2024/04/09 02:00:06;;;;;;;10.00;4.03;;;;;;;;;;5463106;26;20003;-57
2024/04/09 02:02:31;;;;;;;8.88;3.88;;;;;;;;;;5436198;26;20327;-58
2024/04/09 02:04:58;;;;;;;10.80;3.55;;;;;;;;;;5452747;26;20067;-58
2024/04/09 02:07:24;;;;;;;10.48;4.47;;;;;;;;;;5432409;26;20011;-59
2024/04/09 02:09:50;;;;;;;19.58;4.53;;;;;;;;;;5420671;26;20068;-58
2024/04/09 02:12:16;;;;;;;13.68;4.68;;;;;;;;;;5450639;26;20490;-58
2024/04/09 02:14:42;;;;;;;10.23;4.10;;;;;;;;;;5446042;26;20628;-58
2024/04/09 02:17:08;;;;;;;7.47;3.63;;;;;;;;;;5434048;26;19995;-58
2024/04/09 02:19:34;;;;;;;7.95;4.45;;;;;;;;;;5423597;26;19996;-62
2024/04/09 02:22:00;;;;;;;11.35;3.97;;;;;;;;;;5433511;26;19995;-61
2024/04/09 02:24:26;;;;;;;9.43;3.97;;;;;;;;;;5422982;26;20529;-61
2024/04/09 02:26:52;;;;;;;9.15;3.88;;;;;;;;;;5418927;26;20397;-60
2024/04/09 02:29:18;;;;;;;11.55;4.82;;;;;;;;;;5424997;26;20017;-62
2024/04/09 02:31:44;;;;;;;11.43;4.85;;;;;;;;;;5449868;26;20482;-61
2024/04/09 02:34:10;;;;;;;8.52;4.70;;;;;;;;;;5451456;26;20291;-64
2024/04/09 02:36:36;;;;;;;12.52;4.28;;;;;;;;;;5440571;26;19999;-61
2024/04/09 02:39:05;;;;;;;10.50;4.13;;;;;;;;;;5404362;26;20010;-61
2024/04/09 02:41:31;;;;;;;9.25;3.92;;;;;;;;;;5446527;26;20006;-61
2024/04/09 02:43:57;;;;;;;6.78;3.95;;;;;;;;;;5446552;26;20003;-62
2024/04/09 02:46:23;;;;;;;9.50;4.03;;;;;;;;;;5424593;26;20078;-61
2024/04/09 02:48:50;;;;;;;8.57;4.10;;;;;;;;;;5424649;26;19995;-61
2024/04/09 02:51:16;;;;;;;10.60;4.38;;;;;;;;;;5437800;26;20009;-62
2024/04/09 02:53:42;;;;;;;12.23;4.30;;;;;;;;;;5426313;26;20367;-62
2024/04/09 02:56:08;;;;;;;10.98;4.55;;;;;;;;;;5420368;26;20432;-61
2024/04/09 02:58:34;;;;;;;11.15;4.28;;;;;;;;;;5448507;26;19999;-62
2024/04/09 03:01:07;;;;;;;11.18;4.70;;;;;;;;;;5443472;26;20018;-61
2024/04/09 03:03:35;;;;;;;10.55;4.10;;;;;;;;;;5445690;26;20331;-61
2024/04/09 03:06:08;;;;;;;9.63;3.90;;;;;;;;;;5431211;26;20014;-61
2024/04/09 03:08:34;;;;;;;9.25;3.83;;;;;;;;;;5445209;26;20021;-61
2024/04/09 03:11:01;;;;;;;8.85;4.13;;;;;;;;;;5450762;26;20447;-61
2024/04/09 03:13:27;;;;;;;10.60;4.43;;;;;;;;;;5442354;26;20446;-61
2024/04/09 03:15:53;;;;;;;9.15;4.05;;;;;;;;;;5438705;26;19994;-61
2024/04/09 03:18:19;;;;;;;9.07;4.00;;;;;;;;;;5426735;26;20408;-61
2024/04/09 03:20:45;;;;;;;9.60;4.05;;;;;;;;;;5432887;26;20052;-61
2024/04/09 03:23:11;;;;;;;7.82;3.83;;;;;;;;;;5445861;26;20026;-61
2024/04/09 03:25:37;;;;;;;11.30;4.03;;;;;;;;;;5442051;26;20035;-61
2024/04/09 03:28:03;;;;;;;8.82;4.10;;;;;;;;;;5432991;26;19995;-59
2024/04/09 03:30:29;;;;;;;12.48;4.30;;;;;;;;;;5445620;26;20404;-60
2024/04/09 03:32:55;;;;;;;8.20;3.95;;;;;;;;;;5447111;26;20019;-60
2024/04/09 03:35:21;;;;;;;9.82;4.03;;;;;;;;;;5450570;26;20443;-60
2024/04/09 03:37:47;;;;;;;7.53;4.10;;;;;;;;;;5445035;26;20473;-61
2024/04/09 03:40:13;;;;;;;11.55;4.10;;;;;;;;;;5385988;26;20005;-60
2024/04/09 03:42:39;;;;;;;9.88;4.63;;;;;;;;;;5430884;26;20000;-59
2024/04/09 03:45:09;;;;;;;6.32;4.05;;;;;;;;;;5425239;26;20346;-60
2024/04/09 03:47:34;;;;;;;10.00;4.40;;;;;;;;;;5447732;26;20071;-60
2024/04/09 03:50:01;;;;;;;9.25;4.30;;;;;;;;;;5452094;26;20006;-59
2024/04/09 03:52:27;;;;;;;7.68;3.92;;;;;;;;;;5451565;26;19995;-60
2024/04/09 03:54:53;;;;;;;10.95;4.78;;;;;;;;;;5422445;26;19999;-59
2024/04/09 03:57:19;;;;;;;5.82;3.72;;;;;;;;;;5420157;26;20014;-59
2024/04/09 03:59:44;;;;;;;7.68;3.88;;;;;;;;;;5428245;26;19996;-60
2024/04/09 04:02:10;;;;;;;13.52;4.35;;;;;;;;;;5435406;26;19995;-59
2024/04/09 04:04:37;;;;;;;7.68;4.70;;;;;;;;;;5438796;26;20015;-61
2024/04/09 04:07:03;;;;;;;8.60;4.70;;;;;;;;;;5443459;26;20046;-59
2024/04/09 04:09:30;;;;;;;8.52;3.97;;;;;;;;;;5442680;26;20330;-59
2024/04/09 04:11:56;;;;;;;10.27;4.30;;;;;;;;;;5442769;26;20384;-60
2024/04/09 04:14:22;;;;;;;11.45;4.35;;;;;;;;;;5425231;26;20011;-60
2024/04/09 04:16:48;;;;;;;8.02;4.20;;;;;;;;;;5429161;26;20447;-60
2024/04/09 04:19:16;;;;;;;11.63;4.20;;;;;;;;;;5436203;26;20397;-59
2024/04/09 04:21:42;;;;;;;17.58;4.43;;;;;;;;;;5436325;26;20007;-60
2024/04/09 04:24:08;;;;;;;7.22;3.60;;;;;;;;;;5438789;26;20085;-59
2024/04/09 04:26:34;;;;;;;8.20;4.47;;;;;;;;;;5437425;26;20462;-59
2024/04/09 04:29:01;;;;;;;11.38;4.57;;;;;;;;;;5439506;26;20097;-60
2024/04/09 04:31:27;;;;;;;7.30;3.85;;;;;;;;;;5443530;26;20013;-58
2024/04/09 04:33:54;;;;;;;9.13;4.65;;;;;;;;;;5434053;26;20035;-60
2024/04/09 04:36:20;;;;;;;7.78;4.60;;;;;;;;;;5417664;26;20071;-59
2024/04/09 04:38:47;;;;;;;7.68;4.03;;;;;;;;;;5446269;26;19999;-57
2024/04/09 04:41:13;;;;;;;6.22;4.10;;;;;;;;;;5443686;26;20017;-58
2024/04/09 04:43:40;;;;;;;10.00;4.43;;;;;;;;;;5444975;26;20035;-58
2024/04/09 04:46:06;;;;;;;8.23;4.72;;;;;;;;;;5441476;26;20003;-58
2024/04/09 04:48:33;;;;;;;8.93;4.03;;;;;;;;;;5439862;26;20000;-58
2024/04/09 04:50:59;;;;;;;9.27;4.53;;;;;;;;;;5427590;26;20053;-58
2024/04/09 04:53:25;;;;;;;11.02;3.80;;;;;;;;;;5434294;26;20381;-59
2024/04/09 04:55:52;;;;;;;11.02;4.63;;;;;;;;;;5439277;26;20013;-58
2024/04/09 04:58:20;;;;;;;6.13;4.32;;;;;;;;;;5432328;26;20006;-58
2024/04/09 05:00:46;;;;;;;10.75;4.50;;;;;;;;;;5447315;26;20087;-58
2024/04/09 05:03:12;;;;;;;5.82;4.05;;;;;;;;;;5445434;26;20324;-58
2024/04/09 05:05:39;;;;;;;10.30;4.28;;;;;;;;;;5434810;26;20050;-58
2024/04/09 05:08:05;;;;;;;7.75;4.82;;;;;;;;;;5448157;26;20046;-58
2024/04/09 05:10:31;;;;;;;7.25;4.00;;;;;;;;;;5444910;26;20014;-58
2024/04/09 05:12:57;;;;;;;6.07;4.10;;;;;;;;;;5441055;26;20015;-58
2024/04/09 05:15:24;;;;;;;8.60;4.68;;;;;;;;;;5449216;26;20017;-58
2024/04/09 05:17:50;;;;;;;8.48;4.38;;;;;;;;;;5444850;26;20006;-58
2024/04/09 05:20:17;;;;;;;10.85;4.50;;;;;;;;;;5450060;26;20019;-58
2024/04/09 05:22:52;;;;;;;8.75;4.75;;;;;;;;;;5451119;26;19998;-58
2024/04/09 05:25:18;;;;;;;8.52;4.47;;;;;;;;;;5449077;26;20031;-58
2024/04/09 05:27:45;;;;;;;10.32;4.60;;;;;;;;;;5452976;26;20072;-58
2024/04/09 05:30:12;;;;;;;7.80;5.18;;;;;;;;;;5451545;26;20011;-58
2024/04/09 05:32:39;;;;;;;12.02;5.03;;;;;;;;;;5451670;26;20017;-58
2024/04/09 05:35:12;;;;;;;8.25;4.90;;;;;;;;;;5450693;26;20078;-59
2024/04/09 05:37:38;;;;;;;5.88;4.57;;;;;;;;;;5452765;26;20114;-58
2024/04/09 05:40:11;;;;;;;9.50;4.80;;;;;;;;;;5451719;26;20049;-58
2024/04/09 05:42:38;;;;;;;10.63;4.85;;;;;;;;;;5437093;26;20003;-58
2024/04/09 05:45:04;;;;;;;6.93;4.60;;;;;;;;;;5450352;26;19995;-58
2024/04/09 05:47:30;;;;;;;11.57;5.25;;;;;;;;;;5451371;26;20017;-58
2024/04/09 05:49:56;;;;;;;8.98;5.25;;;;;;;;;;5451308;26;20460;-61
2024/04/09 05:52:22;;;;;;;8.10;4.82;;;;;;;;;;5435068;26;20430;-62
2024/04/09 05:54:48;;;;;;;6.70;4.82;;;;;;;;;;5450805;26;20360;-62
2024/04/09 05:57:14;;;;;;;12.07;5.07;;;;;;;;;;5452290;26;20042;-61
2024/04/09 05:59:40;;;;;;;9.48;4.53;;;;;;;;;;5445393;26;20051;-62
2024/04/09 06:02:07;;;;;;;6.03;4.22;;;;;;;;;;5447054;26;19995;-59
2024/04/09 06:04:33;;;;;;;11.50;4.65;;;;;;;;;;5448626;26;20002;-62
2024/04/09 06:07:01;;;;;;;9.63;4.65;;;;;;;;;;5446294;26;20014;-64
2024/04/09 06:09:27;;;;;;;9.55;3.92;;;;;;;;;;5450879;26;19999;-62
2024/04/09 06:11:54;;;;;;;9.60;3.78;;;;;;;;;;5419086;26;20343;-62
2024/04/09 06:14:20;;;;;;;11.18;4.85;;;;;;;;;;5442130;26;19999;-62
2024/04/09 06:16:47;;;;;;;7.40;4.55;;;;;;;;;;5419663;26;19995;-61
2024/04/09 06:19:12;;;;;;;9.23;4.40;;;;;;;;;;5451329;26;20006;-62
2024/04/09 06:21:39;;;;;;;10.00;4.95;;;;;;;;;;5449630;26;20145;-62
2024/04/09 06:24:07;;;;;;;9.65;4.57;;;;;;;;;;5449240;26;20009;-62
2024/04/09 06:26:33;;;;;;;11.90;4.47;;;;;;;;;;5449513;26;19999;-62
2024/04/09 06:28:58;;;;;;;8.73;4.18;;;;;;;;;;5451580;26;20035;-62
2024/04/09 06:31:24;;;;;;;8.55;4.78;;;;;;;;;;5450954;26;19998;-62
2024/04/09 06:33:51;;;;;;;8.45;5.15;;;;;;;;;;5449433;26;20011;-62
2024/04/09 06:36:17;;;;;;;7.65;4.63;;;;;;;;;;5449753;26;20356;-62
2024/04/09 06:38:43;;;;;;;10.98;4.90;;;;;;;;;;5452038;26;20006;-62
2024/04/09 06:41:09;;;;;;;13.82;5.03;;;;;;;;;;5447015;26;19995;-61
2024/04/09 06:43:37;;;;;;;6.70;5.28;;;;;;;;;;5449426;26;19995;-61
2024/04/09 06:46:03;;;;;;;10.90;4.70;;;;;;;;;;5449652;26;20052;-60
2024/04/09 06:48:29;;;;;;;5.95;4.30;;;;;;;;;;5451007;26;20006;-62
2024/04/09 06:50:55;;;;;;;6.60;4.32;;;;;;;;;;5451784;26;20341;-62
2024/04/09 06:53:21;;;;;;;8.80;4.72;;;;;;;;;;5449461;26;19999;-62
2024/04/09 06:55:47;;;;;;;17.20;4.40;;;;;;;;;;5451353;26;20071;-61
2024/04/09 06:58:13;;;;;;;8.05;4.40;;;;;;;;;;5447354;26;19995;-60
2024/04/09 07:00:40;;;;;;;5.97;4.32;;;;;;;;;;5424346;26;20101;-60
2024/04/09 07:03:07;;;;;;;7.18;4.65;;;;;;;;;;5442453;26;20039;-60
2024/04/09 07:05:33;;;;;;;10.82;4.30;;;;;;;;;;5451959;26;20085;-60
2024/04/09 07:08:02;;;;;;;11.30;4.30;;;;;;;;;;5451444;26;20311;-61
2024/04/09 07:10:28;;;;;;;9.20;4.68;;;;;;;;;;5451396;26;19999;-60
2024/04/09 07:12:54;;;;;;;12.77;4.85;;;;;;;;;;5448448;26;20454;-61
2024/04/09 07:15:26;;;;;;;6.93;3.97;;;;;;;;;;5450104;26;19994;-60
2024/04/09 07:17:52;;;;;;;9.30;4.07;;;;;;;;;;5445922;26;20026;-61
2024/04/09 07:20:18;;;;;;;5.40;4.07;;;;;;;;;;5448891;26;19999;-59
2024/04/09 07:22:44;;;;;;;10.95;4.18;;;;;;;;;;5439435;26;20006;-60
2024/04/09 07:25:12;;;;;;;9.55;4.35;;;;;;;;;;5446056;26;20003;-60
2024/04/09 07:27:39;;;;;;;12.73;4.18;;;;;;;;;;5449248;26;20010;-58
2024/04/09 07:30:05;;;;;;;10.38;4.25;;;;;;;;;;5447792;26;20113;-61
2024/04/09 07:32:31;;;;;;;10.73;4.20;;;;;;;;;;5448488;26;19994;-61
2024/04/09 07:34:57;;;;;;;6.32;3.45;;;;;;;;;;5449115;26;20104;-60
2024/04/09 07:37:23;;;;;;;7.13;3.55;;;;;;;;;;5448396;26;20071;-60
2024/04/09 07:39:49;;;;;;;6.53;3.95;;;;;;;;;;5449757;26;20010;-61
2024/04/09 07:42:15;;;;;;;7.32;3.65;;;;;;;;;;5449544;26;19998;-61
2024/04/09 07:44:42;;;;;;;8.00;3.33;;;;;;;;;;5447967;26;19999;-60
2024/04/09 07:47:10;;;;;;;4.93;2.95;;;;;;;;;;5450685;26;20014;-60
2024/04/09 07:49:36;;;;;;;10.02;3.97;;;;;;;;;;5449841;26;20330;-61
2024/04/09 07:52:03;;;;;;;7.32;2.63;;;;;;;;;;5448567;26;20175;-61
2024/04/09 07:54:29;;;;;;;7.45;3.58;;;;;;;;;;5450584;26;20446;-60
2024/04/09 07:56:55;;;;;;;4.03;2.63;;;;;;;;;;5450165;26;20003;-61
2024/04/09 07:59:22;;;;;;;5.97;3.17;;;;;;;;;;5448721;26;20084;-61
2024/04/09 08:01:49;;;;;;;7.47;2.80;;;;;;;;;;5448768;26;20580;-61
2024/04/09 08:04:15;;;;;;;5.50;2.88;;;;;;;;;;5445237;26;20460;-60
2024/04/09 08:06:40;;;;;;;5.90;2.50;;;;;;;;;;5450684;26;20066;-61
2024/04/09 08:09:11;;;;;;;7.57;2.47;;;;;;;;;;5451130;26;20454;-58
2024/04/09 08:11:41;;;;;;;5.50;2.35;;;;;;;;;;5450360;26;20044;-58
2024/04/09 08:14:07;;;;;;;6.53;2.20;;;;;;;;;;5448908;26;19998;-58
2024/04/09 08:16:34;;;;;;;3.97;2.00;;;;;;;;;;5450633;26;19999;-58
2024/04/09 08:19:00;;;;;;;3.80;2.13;;;;;;;;;;5450893;26;20011;-58
2024/04/09 08:21:26;;;;;;;9.25;2.72;;;;;;;;;;5449339;26;20013;-59
2024/04/09 08:23:52;;;;;;;6.68;2.33;;;;;;;;;;5426582;26;19999;-59
2024/04/09 08:26:18;;;;;;;8.52;2.50;;;;;;;;;;5450021;26;20443;-59
2024/04/09 08:28:44;;;;;;;4.93;2.40;;;;;;;;;;5416835;26;20014;-59
2024/04/09 08:31:13;;;;;;;9.95;2.58;;;;;;;;;;5450484;26;19995;-58
2024/04/09 08:33:39;;;;;;;2.95;2.20;;;;;;;;;;5449976;26;19995;-58
2024/04/09 08:36:05;;;;;;;6.32;2.33;;;;;;;;;;5450616;26;20422;-59
2024/04/09 08:38:31;;;;;;;3.25;2.05;;;;;;;;;;5450425;26;19995;-59
2024/04/09 08:40:57;;;;;;;5.72;2.30;;;;;;;;;;5426612;26;20006;-59
2024/04/09 08:43:24;;;;;;;4.20;2.22;;;;;;;;;;5448659;26;20085;-58
2024/04/09 08:45:50;;;;;;;4.25;1.90;;;;;;;;;;5450640;26;20292;-59
2024/04/09 08:48:16;;;;;;;3.55;2.20;;;;;;;;;;5449701;26;20013;-59
2024/04/09 08:50:48;;;;;;;7.93;2.95;;;;;;;;;;5450346;26;20011;-59
2024/04/09 08:53:17;;;;;;;9.75;2.35;;;;;;;;;;5449351;26;20461;-59
2024/04/09 08:55:43;;;;;;;7.68;2.58;;;;;;;;;;5450249;26;19999;-59
2024/04/09 08:58:11;;;;;;;8.52;2.45;;;;;;;;;;5421482;26;20361;-58
2024/04/09 09:00:37;;;;;;;6.00;2.35;;;;;;;;;;5452741;26;20384;-58
2024/04/09 09:03:04;;;;;;;5.70;2.28;;;;;;;;;;5452792;26;20076;-58
2024/04/09 09:05:30;;;;;;;6.60;2.10;;;;;;;;;;5453511;26;20052;-59
2024/04/09 09:08:00;;;;;;;5.80;2.60;;;;;;;;;;5453255;26;20511;-59
2024/04/09 09:10:26;;;;;;;4.97;2.50;;;;;;;;;;5421876;26;20014;-58
2024/04/09 09:12:59;;;;;;;4.60;1.92;;;;;;;;;;5419755;26;20003;-59
2024/04/09 09:15:26;;;;;;;4.75;2.45;;;;;;;;;;5435394;26;20007;-58
2024/04/09 09:17:52;;;;;;;7.15;2.05;;;;;;;;;;5447750;26;20466;-58
2024/04/09 09:20:19;;;;;;;4.68;2.22;;;;;;;;;;5453050;26;19999;-59
2024/04/09 09:22:46;;;;;;;8.38;2.30;;;;;;;;;;5452844;26;20003;-58
2024/04/09 09:25:15;;;;;;;3.63;2.38;;;;;;;;;;5452988;26;20039;-58
2024/04/09 09:27:43;;;;;;;4.03;1.88;;;;;;;;;;5453246;26;19999;-58
2024/04/09 09:30:09;;;;;;;4.80;2.13;;;;;;;;;;5451918;26;19995;-58
2024/04/09 09:32:39;;;;;;;7.20;2.42;;;;;;;;;;5452466;26;20010;-59
2024/04/09 09:35:09;;;;;;;5.97;2.35;;;;;;;;;;5453235;26;19995;-60
2024/04/09 09:37:35;;;;;;;8.00;2.33;;;;;;;;;;5451412;26;20083;-59
2024/04/09 09:40:02;;;;;;;6.55;2.42;;;;;;;;;;5452096;26;20014;-58
2024/04/09 09:42:29;;;;;;;7.60;2.30;;;;;;;;;;5452105;26;20010;-58
2024/04/09 09:44:55;;;;;;;4.78;1.98;;;;;;;;;;5452012;26;20038;-58
2024/04/09 09:47:21;;;;;;;6.32;2.17;;;;;;;;;;5452750;26;20009;-58
2024/04/09 09:49:47;;;;;;;10.23;2.90;;;;;;;;;;5453455;26;20014;-58
2024/04/09 09:52:14;;;;;;;5.38;2.33;;;;;;;;;;5451714;26;20014;-59
2024/04/09 09:54:40;;;;;;;7.18;2.67;;;;;;;;;;5450846;26;20472;-58
2024/04/09 09:57:08;;;;;;;5.57;2.20;;;;;;;;;;5453078;26;20010;-58
2024/04/09 09:59:37;;;;;;;7.38;2.88;;;;;;;;;;5451985;26;20392;-58
2024/04/09 10:02:04;;;;;;;5.93;2.50;;;;;;;;;;5452224;26;20006;-58
2024/04/09 10:04:30;;;;;;;8.05;2.50;;;;;;;;;;5450955;26;19998;-57
2024/04/09 10:06:56;;;;;;;7.40;3.03;;;;;;;;;;5450736;26;19999;-58
2024/04/09 10:09:41;;;;;;;5.93;2.13;;;;;;;;;;5452642;26;20545;-58
2024/04/09 10:12:07;;;;;;;10.98;2.72;;;;;;;;;;5452205;26;20071;-59
2024/04/09 10:14:42;;;;;;;11.88;3.42;;;;;;;;;;5425711;26;20079;-58
2024/04/09 10:17:12;;;;;;;4.47;2.05;;;;;;;;;;5429613;26;20071;-59
2024/04/09 10:19:38;;;;;;;9.75;2.08;;;;;;;;;;5452752;26;20018;-58
2024/04/09 10:22:04;;;;;;;8.13;2.28;;;;;;;;;;5452526;26;20009;-59
2024/04/09 10:24:30;;;;;;;4.63;1.50;;;;;;;;;;5452172;26;20011;-58
2024/04/09 10:26:57;;;;;;;7.07;1.88;;;;;;;;;;5452717;26;20288;-58
2024/04/09 10:29:24;;;;;;;5.15;1.92;;;;;;;;;;5451178;26;19994;-58
2024/04/09 10:31:52;;;;;;;6.50;2.45;;;;;;;;;;5451506;26;20075;-58
2024/04/09 10:34:24;;;;;;;8.88;2.63;;;;;;;;;;5452037;26;20526;-58
2024/04/09 10:36:50;;;;;;;6.57;2.30;;;;;;;;;;5452338;26;20613;-59
2024/04/09 10:39:17;;;;;;;8.88;2.90;;;;;;;;;;5452315;26;20009;-58
2024/04/09 10:41:43;;;;;;;8.27;2.33;;;;;;;;;;5420495;26;20461;-58
2024/04/09 10:44:12;;;;;;;4.35;1.90;;;;;;;;;;5434953;26;20010;-58
2024/04/09 10:46:38;;;;;;;10.02;1.90;;;;;;;;;;5451181;26;20014;-58
2024/04/09 10:49:05;;;;;;;7.40;2.83;;;;;;;;;;5451979;26;20010;-59
2024/04/09 10:51:31;;;;;;;4.47;2.10;;;;;;;;;;5452575;26;20435;-58
2024/04/09 10:54:03;;;;;;;7.25;1.63;;;;;;;;;;5451271;26;19999;-59
2024/04/09 10:56:31;;;;;;;16.45;2.25;;;;;;;;;;5428945;26;19998;-58
2024/04/09 10:58:57;;;;;;;7.53;2.17;;;;;;;;;;5449437;26;19995;-58
2024/04/09 11:01:23;;;;;;;7.25;1.98;;;;;;;;;;5452092;26;19995;-58
2024/04/09 11:03:49;;;;;;;15.98;2.20;;;;;;;;;;5450508;26;20395;-58
2024/04/09 11:06:15;;;;;;;8.55;2.28;;;;;;;;;;5452124;26;19999;-59
2024/04/09 11:08:42;;;;;;;11.43;1.95;;;;;;;;;;5451531;26;20003;-58
2024/04/09 11:11:08;;;;;;;9.30;2.10;;;;;;;;;;5452157;26;20002;-58
2024/04/09 11:13:34;;;;;;;9.68;2.15;;;;;;;;;;5449957;26;20014;-59
2024/04/09 11:16:01;;;;;;;10.93;1.80;;;;;;;;;;5452162;26;20010;-58
2024/04/09 11:18:27;;;;;;;12.30;2.25;;;;;;;;;;5449152;26;20009;-58
2024/04/09 11:20:55;;;;;;;8.90;2.20;;;;;;;;;;5452010;26;20052;-58
2024/04/09 11:23:25;;;;;;;14.00;2.72;;;;;;;;;;5449598;26;19999;-59
2024/04/09 11:25:54;;;;;;;11.27;1.70;;;;;;;;;;5450672;26;19998;-58
2024/04/09 11:28:21;;;;;;;15.52;2.30;;;;;;;;;;5451978;26;20048;-58
2024/04/09 11:30:50;;;;;;;7.60;1.90;;;;;;;;;;5450663;26;19998;-58
2024/04/09 11:33:16;;;;;;;14.30;1.83;;;;;;;;;;5450768;26;20454;-59
2024/04/09 11:35:43;;;;;;;11.45;2.55;;;;;;;;;;5451474;26;20446;-59
2024/04/09 11:38:10;;;;;;;17.05;2.70;;;;;;;;;;5449863;26;20035;-60
2024/04/09 11:40:36;;;;;;;6.63;2.08;;;;;;;;;;5451802;26;20364;-61
2024/04/09 11:43:02;;;;;;;9.32;2.05;;;;;;;;;;5450012;26;20478;-60
2024/04/09 11:45:29;;;;;;;6.82;2.08;;;;;;;;;;5450624;26;20072;-61
2024/04/09 11:47:55;;;;;;;6.13;2.50;;;;;;;;;;5451665;26;20014;-60
2024/04/09 11:50:21;;;;;;;10.15;2.10;;;;;;;;;;5450829;26;20003;-61
2024/04/09 11:52:47;;;;;;;12.82;2.17;;;;;;;;;;5451034;26;20466;-60
2024/04/09 11:55:14;;;;;;;8.68;2.10;;;;;;;;;;5451342;26;20079;-61
2024/04/09 11:57:41;;;;;;;8.50;1.95;;;;;;;;;;5451264;26;20017;-60
2024/04/09 12:00:08;;;;;;;9.50;2.33;;;;;;;;;;5448948;26;20007;-60
2024/04/09 12:02:37;;;;;;;10.18;2.30;;;;;;;;;;5449153;26;20072;-60
2024/04/09 12:05:03;;;;;;;12.35;2.08;;;;;;;;;;5449703;26;20373;-60
2024/04/09 12:07:29;;;;;;;10.40;2.20;;;;;;;;;;5451148;26;21047;-60
2024/04/09 12:09:55;;;;;;;9.45;1.92;;;;;;;;;;5451339;26;20013;-60
2024/04/09 12:12:21;;;;;;;8.45;2.22;;;;;;;;;;5450334;26;20435;-60
2024/04/09 12:14:47;;;;;;;14.68;2.10;;;;;;;;;;5449689;26;20005;-59
2024/04/09 12:17:13;;;;;;;9.23;2.20;;;;;;;;;;5426379;26;20103;-58
2024/04/09 12:19:40;;;;;;;7.72;1.98;;;;;;;;;;5450708;26;19999;-61
2024/04/09 12:22:06;;;;;;;11.35;2.20;;;;;;;;;;5450847;26;20002;-61
2024/04/09 12:24:32;;;;;;;9.48;1.73;;;;;;;;;;5450590;26;20030;-61
2024/04/09 12:26:58;;;;;;;8.30;2.22;;;;;;;;;;5450925;26;20331;-61
2024/04/09 12:29:24;;;;;;;8.77;2.20;;;;;;;;;;5450929;26;20030;-61
2024/04/09 12:31:50;;;;;;;10.63;2.20;;;;;;;;;;5446765;26;20076;-60
2024/04/09 12:34:19;;;;;;;8.95;2.20;;;;;;;;;;5449763;26;20030;-61
2024/04/09 12:36:45;;;;;;;11.90;2.30;;;;;;;;;;5450116;26;20474;-59
2024/04/09 12:39:11;;;;;;;9.15;2.42;;;;;;;;;;5450574;26;20003;-60
2024/04/09 12:41:38;;;;;;;9.82;2.30;;;;;;;;;;5450862;26;19999;-60
2024/04/09 12:44:04;;;;;;;8.23;2.63;;;;;;;;;;5449885;26;20015;-61
2024/04/09 12:46:30;;;;;;;18.58;3.25;;;;;;;;;;5448063;26;20203;-60
2024/04/09 12:48:56;;;;;;;19.15;2.90;;;;;;;;;;5450769;26;20006;-62
2024/04/09 12:51:22;;;;;;;21.25;3.72;;;;;;;;;;5450060;26;20007;-63
2024/04/09 12:53:48;;;;;;;22.90;4.57;;;;;;;;;;5448726;26;20446;-62
2024/04/09 12:56:14;;;;;;;27.73;4.80;;;;;;;;;;5449880;26;19999;-62
2024/04/09 12:58:40;;;;;;;21.85;4.40;;;;;;;;;;5450265;26;20007;-62
2024/04/09 13:01:07;;;;;;;28.42;4.90;;;;;;;;;;5448605;26;19995;-62
2024/04/09 13:03:33;;;;;;;42.85;3.63;;;;;;;;;;5447644;26;20403;-62
2024/04/09 13:05:59;;;;;;;27.55;4.90;;;;;;;;;;5439806;26;20002;-62
2024/04/09 13:08:25;;;;;;;17.88;3.75;;;;;;;;;;5448481;26;20003;-62
2024/04/09 13:10:51;;;;;;;18.85;3.03;;;;;;;;;;5416274;26;20013;-62
2024/04/09 13:13:17;;;;;;;24.20;4.50;;;;;;;;;;5447237;26;20035;-62
2024/04/09 13:15:43;;;;;;;29.80;3.90;;;;;;;;;;5441786;26;19999;-62
2024/04/09 13:18:09;;;;;;;22.67;3.72;;;;;;;;;;5433831;26;20067;-62
2024/04/09 13:20:35;;;;;;;21.30;3.75;;;;;;;;;;5443378;26;20224;-62
2024/04/09 13:23:01;;;;;;;22.73;3.25;;;;;;;;;;5447265;26;19995;-62
2024/04/09 13:25:27;;;;;;;22.15;3.40;;;;;;;;;;5449640;26;20013;-62
2024/04/09 13:27:53;;;;;;;18.40;2.75;;;;;;;;;;5449345;26;19995;-62
2024/04/09 13:30:19;;;;;;;17.13;3.03;;;;;;;;;;5446458;26;20015;-62
2024/04/09 13:32:47;;;;;;;19.00;3.80;;;;;;;;;;5438206;26;19999;-62
2024/04/09 13:35:13;;;;;;;25.75;4.03;;;;;;;;;;5443856;26;20001;-62
2024/04/09 13:37:43;;;;;;;22.55;3.38;;;;;;;;;;5438221;26;20052;-60
2024/04/09 13:40:09;;;;;;;17.15;2.70;;;;;;;;;;5437249;26;20749;-62
2024/04/09 13:42:39;;;;;;;22.50;3.58;;;;;;;;;;5448377;26;20014;-62
2024/04/09 13:45:05;;;;;;;16.38;4.53;;;;;;;;;;5429671;26;20211;-62
2024/04/09 13:47:31;;;;;;;18.58;3.70;;;;;;;;;;5450117;26;19995;-62
2024/04/09 13:49:57;;;;;;;23.38;3.53;;;;;;;;;;5432706;26;20053;-62
2024/04/09 13:52:23;;;;;;;21.88;2.70;;;;;;;;;;5434139;26;19995;-62
2024/04/09 13:54:49;;;;;;;17.08;3.10;;;;;;;;;;5443224;26;20003;-61
2024/04/09 13:57:15;;;;;;;16.02;2.97;;;;;;;;;;5448093;26;20066;-61
2024/04/09 13:59:41;;;;;;;21.90;2.78;;;;;;;;;;5436693;26;19995;-59
2024/04/09 14:02:13;;;;;;;13.75;2.38;;;;;;;;;;5449625;26;19999;-61
2024/04/09 14:04:39;;;;;;;19.33;3.05;;;;;;;;;;5446631;26;20332;-61
2024/04/09 14:07:05;;;;;;;13.05;2.65;;;;;;;;;;5447813;26;20084;-61
2024/04/09 14:09:31;;;;;;;11.18;2.03;;;;;;;;;;5430348;26;19999;-61
2024/04/09 14:11:57;;;;;;;12.50;2.15;;;;;;;;;;5435962;26;20031;-62
2024/04/09 14:14:23;;;;;;;18.83;2.92;;;;;;;;;;5436963;26;20027;-62
2024/04/09 14:16:49;;;;;;;12.20;1.67;;;;;;;;;;5450130;26;19998;-61
2024/04/09 14:19:19;;;;;;;8.75;1.50;;;;;;;;;;5450714;26;19998;-61
2024/04/09 14:21:45;;;;;;;6.78;1.55;;;;;;;;;;5420286;26;20031;-59
2024/04/09 14:24:11;;;;;;;10.32;1.70;;;;;;;;;;5441597;26;20039;-62
2024/04/09 14:26:37;;;;;;;11.20;1.35;;;;;;;;;;5436510;26;20410;-61
2024/04/09 14:29:03;;;;;;;8.43;1.80;;;;;;;;;;5451854;26;20017;-62
2024/04/09 14:31:29;;;;;;;11.73;1.98;;;;;;;;;;5450998;26;19999;-61
2024/04/09 14:33:55;;;;;;;7.55;1.23;;;;;;;;;;5434218;26;20006;-61